Time;durP1;ratioP1;P1;durP2;ratioP2;P2;SDS_P1;SDS_P2;PMS_P1;PMS_P2;Temp;Humidity;BMP_temperature;BMP_pressure;BME280_temperature;BME280_humidity;BME280_pressure;Samples;Min_cycle;Max_cycle;Signal;HPM_P1;HPM_P2
2021/03/05 04:15:13;;;;;;;3.80;1.00;;;-7.20;84.30;;;;;;5053250;28;20555;-65
2021/03/05 04:17:39;;;;;;;3.92;1.17;;;-7.20;84.30;;;;;;5054102;28;20082;-65
2021/03/05 04:20:08;;;;;;;2.00;1.27;;;-7.20;84.10;;;;;;5053518;28;20029;-65
2021/03/05 04:22:34;;;;;;;3.83;1.20;;;-7.20;84.00;;;;;;5053533;28;20017;-65
2021/03/05 04:25:00;;;;;;;1.73;1.20;;;-7.20;84.00;;;;;;5053445;28;20104;-65
2021/03/05 04:27:26;;;;;;;1.05;1.05;;;-7.20;84.10;;;;;;5053661;28;20059;-65
2021/03/05 04:29:52;;;;;;;3.47;1.40;;;-7.20;84.20;;;;;;5053370;28;20453;-65
2021/03/05 04:32:18;;;;;;;9.88;1.33;;;-7.40;83.90;;;;;;5053511;28;20013;-65
2021/03/05 04:34:43;;;;;;;3.35;1.13;;;-7.50;84.50;;;;;;5053587;28;20021;-65
2021/03/05 04:37:09;;;;;;;1.10;1.02;;;-7.50;85.00;;;;;;5053106;28;20021;-65
2021/03/05 04:39:35;;;;;;;1.20;1.10;;;-7.50;85.40;;;;;;5053320;28;20039;-65
2021/03/05 04:42:00;;;;;;;3.40;1.15;;;-7.60;85.40;;;;;;5053091;28;20031;-65
2021/03/05 04:44:26;;;;;;;1.23;1.13;;;-7.70;85.40;;;;;;5053452;28;20036;-65
2021/03/05 04:46:52;;;;;;;2.38;1.30;;;-7.70;85.80;;;;;;5053071;28;20043;-65
2021/03/05 04:49:18;;;;;;;5.93;1.27;;;-7.70;85.60;;;;;;5053321;28;20032;-65
2021/03/05 04:51:43;;;;;;;1.08;1.00;;;-7.70;85.50;;;;;;5052957;28;20033;-65
2021/03/05 04:54:09;;;;;;;3.10;1.08;;;-7.80;85.30;;;;;;5053392;28;20028;-65
2021/03/05 04:56:36;;;;;;;2.67;1.25;;;-7.80;85.50;;;;;;5052852;28;20029;-65
2021/03/05 04:59:03;;;;;;;5.70;1.42;;;-7.80;85.70;;;;;;5052798;28;20029;-65
2021/03/05 05:01:28;;;;;;;1.85;1.23;;;-7.90;85.90;;;;;;5051814;28;20029;-65
2021/03/05 05:03:54;;;;;;;2.47;1.20;;;-7.90;86.00;;;;;;5053156;28;20609;-65
2021/03/05 05:06:20;;;;;;;2.35;1.17;;;-7.90;86.20;;;;;;5053256;28;20408;-66
2021/03/05 05:08:47;;;;;;;1.08;1.02;;;-7.90;86.20;;;;;;5052826;28;20025;-66
2021/03/05 05:11:12;;;;;;;1.15;1.05;;;-7.90;86.20;;;;;;5052680;28;20031;-66
2021/03/05 05:13:38;;;;;;;7.72;1.10;;;-7.90;86.20;;;;;;5052610;28;20021;-66
2021/03/05 05:16:04;;;;;;;1.88;1.08;;;-7.90;86.00;;;;;;5052253;28;20052;-65
2021/03/05 05:18:30;;;;;;;12.55;1.45;;;-8.00;85.90;;;;;;5052720;28;20021;-66
2021/03/05 05:20:55;;;;;;;1.75;1.15;;;-8.00;86.20;;;;;;5052544;28;20135;-66
2021/03/05 05:23:21;;;;;;;3.30;1.40;;;-8.00;86.30;;;;;;5052564;28;20073;-66
2021/03/05 05:25:47;;;;;;;3.35;1.40;;;-8.00;86.30;;;;;;5052486;28;20499;-66
2021/03/05 05:28:12;;;;;;;2.10;1.17;;;-7.90;86.20;;;;;;5052348;28;20362;-66
2021/03/05 05:30:38;;;;;;;2.70;1.40;;;-8.00;86.50;;;;;;5052247;28;20082;-67
2021/03/05 05:33:04;;;;;;;1.10;1.10;;;-8.00;86.70;;;;;;5052263;28;20020;-64
2021/03/05 05:35:30;;;;;;;5.80;1.83;;;-7.90;86.70;;;;;;5052159;28;20392;-68
2021/03/05 05:37:55;;;;;;;1.92;1.50;;;-7.90;86.30;;;;;;5052043;28;20049;-66
2021/03/05 05:40:21;;;;;;;1.30;1.20;;;-7.90;86.10;;;;;;5052125;28;20389;-65
2021/03/05 05:42:48;;;;;;;2.72;1.38;;;-7.40;99.90;;;;;;5052262;28;20025;-67
2021/03/05 05:45:14;;;;;;;11.38;1.50;;;-6.80;99.90;;;;;;5052070;28;20024;-66
2021/03/05 05:47:41;;;;;;;2.85;1.20;;;-6.80;93.00;;;;;;5051968;28;20074;-67
2021/03/05 05:50:08;;;;;;;1.13;1.13;;;-7.10;89.00;;;;;;5037573;28;20029;-68
2021/03/05 05:52:35;;;;;;;7.30;1.33;;;-7.40;86.90;;;;;;5051393;28;20263;-68
2021/03/05 05:55:05;;;;;;;3.88;1.52;;;-7.50;87.60;;;;;;5049429;28;20559;-69
2021/03/05 05:57:35;;;;;;;1.58;1.20;;;-7.50;87.40;;;;;;5043314;28;20052;-68
2021/03/05 06:00:04;;;;;;;5.35;1.42;;;-7.50;86.60;;;;;;5039466;28;20075;-69
2021/03/05 06:02:30;;;;;;;4.43;1.45;;;-7.40;86.50;;;;;;5043221;28;20508;-69
2021/03/05 06:04:55;;;;;;;3.50;1.60;;;-7.40;85.30;;;;;;5033463;28;20485;-67
2021/03/05 06:07:25;;;;;;;2.75;1.60;;;-7.30;85.40;;;;;;5042216;28;20079;-67
2021/03/05 06:09:52;;;;;;;7.60;1.95;;;-7.10;84.90;;;;;;5035745;28;20103;-66
2021/03/05 06:12:19;;;;;;;5.20;1.77;;;-6.90;83.60;;;;;;5044031;28;20017;-66
2021/03/05 06:14:46;;;;;;;3.08;1.40;;;-6.80;82.60;;;;;;5042868;28;20552;-66
2021/03/05 06:17:12;;;;;;;1.40;1.30;;;-6.70;81.40;;;;;;5045302;28;20028;-66
2021/03/05 06:19:38;;;;;;;1.30;1.20;;;-6.70;81.00;;;;;;5042572;28;20040;-66
2021/03/05 06:22:22;;;;;;;3.60;1.52;;;-6.60;81.10;;;;;;5047926;28;20021;-66
2021/03/05 06:24:47;;;;;;;3.60;1.30;;;-6.40;80.50;;;;;;5048987;28;20017;-65
2021/03/05 06:27:15;;;;;;;7.63;1.52;;;-6.20;84.20;;;;;;5051112;28;20029;-65
2021/03/05 06:29:48;;;;;;;2.13;1.30;;;-6.00;83.00;;;;;;5050839;28;20497;-68
2021/03/05 06:32:16;;;;;;;23.80;2.15;;;-6.00;80.30;;;;;;5051249;28;20427;-68
2021/03/05 06:34:49;;;;;;;1.95;1.33;;;-5.90;79.50;;;;;;5051248;28;20111;-68
2021/03/05 06:37:16;;;;;;;4.05;1.13;;;-5.90;78.00;;;;;;5051093;28;20128;-68
2021/03/05 06:39:42;;;;;;;5.50;1.15;;;-6.00;77.30;;;;;;5051295;28;20029;-68
2021/03/05 06:42:14;;;;;;;1.73;1.25;;;-6.00;77.30;;;;;;5051153;28;20025;-68
2021/03/05 06:44:42;;;;;;;1.40;1.02;;;-5.90;77.20;;;;;;5051616;28;20052;-68
2021/03/05 06:47:13;;;;;;;1.77;1.40;;;-5.90;76.90;;;;;;5051335;28;20053;-68
2021/03/05 06:49:41;;;;;;;1.15;1.10;;;-5.90;76.90;;;;;;5051377;28;20033;-68
2021/03/05 06:52:07;;;;;;;1.10;1.10;;;-5.90;77.10;;;;;;5051081;28;20032;-68
2021/03/05 06:54:35;;;;;;;2.78;1.13;;;-5.90;77.00;;;;;;5051455;28;20068;-69
2021/03/05 06:57:02;;;;;;;3.28;1.40;;;-5.80;77.00;;;;;;5051124;28;20033;-68
2021/03/05 06:59:45;;;;;;;3.60;1.20;;;-5.80;76.60;;;;;;5051251;28;20436;-68
2021/03/05 07:02:14;;;;;;;3.95;1.40;;;-5.70;76.40;;;;;;5038609;28;20036;-67
2021/03/05 07:04:43;;;;;;;9.52;1.10;;;-5.50;91.90;;;;;;5051321;28;20029;-67
2021/03/05 07:07:10;;;;;;;3.13;1.15;;;-4.60;99.90;;;;;;5037012;28;20009;-66
2021/03/05 07:09:46;;;;;;;9.95;1.45;;;-4.30;83.80;;;;;;5051359;28;20166;-67
2021/03/05 07:12:17;;;;;;;6.13;1.33;;;-4.10;99.90;;;;;;5047204;28;20028;-66
2021/03/05 07:14:47;;;;;;;2.45;1.13;;;-3.30;99.90;;;;;;5049929;28;20029;-67
2021/03/05 07:17:14;;;;;;;1.85;1.10;;;-3.70;77.50;;;;;;5049792;28;20597;-67
2021/03/05 07:19:40;;;;;;;4.90;1.10;;;-4.20;74.40;;;;;;5046245;28;20500;-67
2021/03/05 07:22:07;;;;;;;6.78;1.35;;;-4.50;74.60;;;;;;5050582;28;20107;-69
2021/03/05 07:24:38;;;;;;;2.60;1.45;;;-4.70;74.60;;;;;;5051142;28;20250;-68
2021/03/05 07:27:05;;;;;;;6.10;1.50;;;-4.80;74.80;;;;;;5051195;28;20465;-70
2021/03/05 07:29:45;;;;;;;3.58;1.40;;;-5.00;75.00;;;;;;5050856;28;20064;-69
2021/03/05 07:32:21;;;;;;;9.40;1.00;;;-4.40;85.50;;;;;;5050373;28;20109;-69
2021/03/05 07:35:11;;;;;;;4.82;1.20;;;-4.70;77.40;;;;;;5051648;28;20104;-71
2021/03/05 07:37:57;;;;;;;3.50;1.20;;;-4.80;76.10;;;;;;5051023;28;20091;-68
2021/03/05 07:40:23;;;;;;;9.27;1.05;;;-4.90;75.50;;;;;;5051635;28;20030;-69
2021/03/05 07:42:49;;;;;;;5.13;1.42;;;-5.00;75.60;;;;;;5054834;28;20043;-67
2021/03/05 07:45:16;;;;;;;2.78;1.08;;;-5.00;75.70;;;;;;5054589;28;20622;-66
2021/03/05 07:47:44;;;;;;;6.63;1.42;;;-5.10;75.80;;;;;;5054821;28;20066;-67
2021/03/05 07:50:12;;;;;;;2.60;1.30;;;-5.00;75.80;;;;;;5050467;28;20036;-68
2021/03/05 07:52:39;;;;;;;3.22;1.20;;;-5.00;75.60;;;;;;5051369;28;20024;-69
2021/03/05 07:55:05;;;;;;;2.58;1.45;;;-5.00;75.30;;;;;;5053792;28;20502;-69
2021/03/05 07:57:31;;;;;;;5.35;1.70;;;-5.00;75.50;;;;;;5054195;28;20504;-70
2021/03/05 08:00:01;;;;;;;10.20;2.58;;;-5.00;75.30;;;;;;5054126;28;20029;-71
2021/03/05 08:02:53;;;;;;;3.50;1.60;;;-5.00;75.10;;;;;;5054151;28;20017;-70
2021/03/05 08:05:37;;;;;;;5.80;1.55;;;-5.00;75.20;;;;;;5054531;28;20044;-68
2021/03/05 08:08:17;;;;;;;4.32;1.48;;;-5.00;75.30;;;;;;5054059;28;20495;-67
2021/03/05 08:10:56;;;;;;;8.45;1.60;;;-5.00;75.00;;;;;;5053858;28;20042;-65
2021/03/05 08:13:48;;;;;;;7.60;2.20;;;-5.00;77.50;;;;;;5054125;28;20025;-66
2021/03/05 08:16:30;;;;;;;5.53;2.45;;;-4.90;78.40;;;;;;5051563;28;20455;-67
2021/03/05 08:19:16;;;;;;;6.90;2.55;;;-4.60;87.90;;;;;;5054049;28;20032;-71
2021/03/05 08:21:51;;;;;;;9.35;2.63;;;-4.40;82.40;;;;;;5048957;28;20397;-71
2021/03/05 08:24:30;;;;;;;8.10;2.90;;;-4.50;78.00;;;;;;5054006;28;20500;-72
2021/03/05 08:27:11;;;;;;;7.65;3.05;;;-3.90;87.50;;;;;;5053364;28;20116;-69
2021/03/05 08:30:08;;;;;;;5.28;2.33;;;-3.70;99.90;;;;;;5054070;28;20021;-69
2021/03/05 08:32:35;;;;;;;5.03;2.47;;;-3.10;99.90;;;;;;5053659;28;20049;-69
2021/03/05 08:35:07;;;;;;;7.65;2.40;;;-1.90;95.50;;;;;;5053739;28;20049;-69
2021/03/05 08:37:54;;;;;;;7.88;2.80;;;-2.60;76.00;;;;;;5053746;28;20032;-69
2021/03/05 08:40:22;;;;;;;9.18;2.05;;;-3.20;73.70;;;;;;5053845;28;20079;-69
2021/03/05 08:42:55;;;;;;;10.35;2.47;;;-3.60;73.50;;;;;;5053520;28;20059;-69
2021/03/05 08:45:33;;;;;;;4.60;1.60;;;-3.80;73.90;;;;;;5053862;28;20032;-69
2021/03/05 08:48:01;;;;;;;6.07;1.90;;;-3.90;74.00;;;;;;5053501;28;20021;-69
2021/03/05 08:50:32;;;;;;;3.00;1.65;;;-3.90;74.20;;;;;;5053456;28;20115;-69
2021/03/05 08:53:03;;;;;;;6.70;1.80;;;-4.00;74.20;;;;;;5052954;28;20025;-69
2021/03/05 08:55:37;;;;;;;3.47;1.90;;;-4.10;73.70;;;;;;5053529;28;20056;-69
2021/03/05 08:58:03;;;;;;;6.60;1.58;;;-4.00;74.00;;;;;;5053372;28;20108;-69
2021/03/05 09:00:31;;;;;;;5.45;1.50;;;-4.00;73.70;;;;;;5053631;28;20028;-69
2021/03/05 09:03:12;;;;;;;2.47;1.55;;;-4.00;73.70;;;;;;5053486;28;20029;-69
2021/03/05 09:05:41;;;;;;;3.85;2.05;;;-4.00;72.90;;;;;;5053687;28;20029;-69
2021/03/05 09:08:12;;;;;;;9.98;2.00;;;-3.90;73.20;;;;;;5053037;28;20047;-69
2021/03/05 09:10:45;;;;;;;5.93;1.63;;;-3.80;73.50;;;;;;5053124;28;20047;-69
2021/03/05 09:13:19;;;;;;;7.95;1.73;;;-3.80;72.40;;;;;;5053041;28;20047;-69
2021/03/05 09:15:54;;;;;;;11.32;1.85;;;-3.80;72.20;;;;;;5053114;28;20053;-69
2021/03/05 09:18:21;;;;;;;21.40;2.17;;;-3.70;72.20;;;;;;5052148;28;20021;-70
2021/03/05 09:20:49;;;;;;;13.73;1.80;;;-3.60;82.70;;;;;;5068083;28;20056;-70
2021/03/05 09:23:16;;;;;;;7.80;1.60;;;-1.20;99.90;;;;;;5072782;28;20024;-67
2021/03/05 09:25:53;;;;;;;5.65;1.48;;;-1.10;79.70;;;;;;5058146;28;20528;-70
2021/03/05 09:28:21;;;;;;;13.23;1.90;;;-1.80;71.40;;;;;;5051401;28;20471;-70
2021/03/05 09:30:49;;;;;;;5.72;1.63;;;-2.30;70.80;;;;;;5053035;28;20065;-71
2021/03/05 09:33:15;;;;;;;5.07;1.20;;;-2.70;70.40;;;;;;5052605;28;20029;-70
2021/03/05 09:35:41;;;;;;;4.80;1.55;;;-2.90;71.00;;;;;;5052682;28;20029;-69
2021/03/05 09:38:07;;;;;;;8.65;1.58;;;-3.00;70.90;;;;;;5052458;28;20025;-69
2021/03/05 09:40:34;;;;;;;4.60;1.77;;;-3.10;71.40;;;;;;5052509;28;20515;-68
2021/03/05 09:43:01;;;;;;;10.90;2.55;;;-3.10;70.90;;;;;;5051875;28;20086;-68
2021/03/05 09:45:33;;;;;;;4.05;2.03;;;-3.10;70.90;;;;;;5052515;28;20048;-68
2021/03/05 09:47:59;;;;;;;7.22;2.08;;;-3.10;71.60;;;;;;5051905;28;20063;-68
2021/03/05 09:50:26;;;;;;;3.45;2.00;;;-3.10;70.90;;;;;;5052232;28;20060;-68
2021/03/05 09:52:53;;;;;;;8.27;2.05;;;-3.10;71.70;;;;;;5052490;28;20028;-69
2021/03/05 09:55:29;;;;;;;14.32;2.20;;;-3.10;70.90;;;;;;5051451;28;20021;-68
2021/03/05 09:58:16;;;;;;;4.53;1.88;;;-3.00;70.90;;;;;;5052165;28;20021;-69
2021/03/05 10:00:42;;;;;;;2.88;1.67;;;-2.90;72.00;;;;;;5052037;28;20500;-69
2021/03/05 10:03:10;;;;;;;6.18;2.28;;;-2.80;72.50;;;;;;5051463;28;20029;-69
2021/03/05 10:05:38;;;;;;;1.75;1.20;;;-2.70;72.00;;;;;;5052717;28;20021;-69
2021/03/05 10:08:11;;;;;;;2.30;1.20;;;-2.60;72.00;;;;;;5051631;28;20033;-70
2021/03/05 10:11:10;;;;;;;5.30;1.73;;;-2.60;71.70;;;;;;5052111;28;20119;-70
2021/03/05 10:13:44;;;;;;;5.65;1.40;;;-2.20;91.70;;;;;;5051319;28;20029;-67
2021/03/05 10:16:15;;;;;;;2.25;1.15;;;-2.00;79.80;;;;;;5051763;28;20041;-69
2021/03/05 10:18:43;;;;;;;3.95;1.40;;;-1.30;80.50;;;;;;5051959;28;20029;-69
2021/03/05 10:21:13;;;;;;;0.98;0.90;;;-1.60;71.10;;;;;;5050405;28;20504;-69
2021/03/05 10:23:40;;;;;;;1.55;0.88;;;-1.80;69.90;;;;;;5051817;28;20063;-69
2021/03/05 10:26:30;;;;;;;8.23;1.30;;;-2.00;68.80;;;;;;5051409;28;20122;-69
2021/03/05 10:28:58;;;;;;;1.95;0.90;;;-2.00;69.20;;;;;;5050149;28;20432;-69
2021/03/05 10:31:40;;;;;;;6.50;1.10;;;-2.10;68.80;;;;;;5050948;28;20116;-71
2021/03/05 10:34:06;;;;;;;2.45;0.95;;;-2.10;69.00;;;;;;5051331;28;20060;-74
2021/03/05 10:36:32;;;;;;;4.18;1.05;;;-2.00;68.60;;;;;;5051727;28;20068;-67
2021/03/05 10:38:57;;;;;;;3.28;1.10;;;-2.00;68.50;;;;;;5051537;28;20067;-68
2021/03/05 10:41:23;;;;;;;6.15;1.23;;;-2.00;68.60;;;;;;5051181;28;20430;-67
2021/03/05 10:43:49;;;;;;;5.97;1.45;;;-1.90;68.40;;;;;;5051629;28;20035;-67
2021/03/05 10:46:14;;;;;;;7.30;1.40;;;-1.90;68.60;;;;;;5051708;28;20028;-67
2021/03/05 10:48:40;;;;;;;8.90;1.20;;;-1.80;68.60;;;;;;5051607;28;20021;-67
2021/03/05 10:51:06;;;;;;;5.00;1.10;;;-1.70;68.40;;;;;;5051543;28;20153;-67
2021/03/05 10:53:31;;;;;;;9.95;1.27;;;-1.70;68.20;;;;;;5051593;28;20159;-68
2021/03/05 10:55:57;;;;;;;1.98;1.15;;;-1.70;67.60;;;;;;5051615;28;20029;-67
2021/03/05 10:58:23;;;;;;;3.50;1.10;;;-1.60;67.20;;;;;;5051552;28;20025;-67
2021/03/05 11:00:49;;;;;;;2.65;0.90;;;-1.70;66.70;;;;;;5051924;28;20051;-67
2021/03/05 11:03:14;;;;;;;7.50;1.10;;;-1.70;66.70;;;;;;5051722;28;20357;-68
2021/03/05 11:05:40;;;;;;;2.33;0.90;;;-1.60;66.90;;;;;;5051649;28;20101;-68
2021/03/05 11:08:06;;;;;;;6.75;1.10;;;-1.70;66.40;;;;;;5051496;28;20473;-68
2021/03/05 11:10:32;;;;;;;3.83;1.00;;;-1.60;66.80;;;;;;5051578;28;20048;-68
2021/03/05 11:12:58;;;;;;;1.08;0.80;;;-1.60;66.50;;;;;;5051640;28;20025;-68
2021/03/05 11:15:23;;;;;;;6.63;1.15;;;-1.70;66.00;;;;;;5052834;28;20123;-68
2021/03/05 11:17:49;;;;;;;1.83;1.00;;;-1.60;66.70;;;;;;5055336;28;20388;-68
2021/03/05 11:20:15;;;;;;;5.57;1.20;;;-1.60;66.30;;;;;;5055630;28;20028;-68
2021/03/05 11:22:41;;;;;;;1.13;0.80;;;-1.50;66.20;;;;;;5055497;28;20480;-68
2021/03/05 11:25:08;;;;;;;2.40;0.95;;;-1.50;66.00;;;;;;5055245;28;20052;-68
2021/03/05 11:27:35;;;;;;;3.58;0.90;;;-1.40;65.80;;;;;;5055358;28;20099;-68
2021/03/05 11:30:03;;;;;;;0.88;0.85;;;-1.40;65.50;;;;;;5055083;28;20405;-68
2021/03/05 11:32:29;;;;;;;3.05;1.10;;;-1.40;65.40;;;;;;5055001;28;20488;-68
2021/03/05 11:34:55;;;;;;;3.08;0.80;;;-1.40;64.90;;;;;;5055038;28;20036;-69
2021/03/05 11:37:20;;;;;;;20.40;4.40;;;-1.40;65.00;;;;;;5054947;28;20032;-68
2021/03/05 11:39:46;;;;;;;4.40;0.90;;;-1.40;65.00;;;;;;5054877;28;20071;-68
2021/03/05 11:42:12;;;;;;;5.63;1.20;;;-1.30;65.00;;;;;;5054700;28;20025;-68
2021/03/05 11:44:38;;;;;;;2.40;0.85;;;-1.30;65.20;;;;;;5054480;28;20029;-69
2021/03/05 11:47:03;;;;;;;5.03;1.00;;;-1.20;65.10;;;;;;5055000;28;20108;-68
2021/03/05 11:49:29;;;;;;;6.65;0.93;;;-1.20;65.00;;;;;;5054693;28;20029;-69
2021/03/05 11:51:55;;;;;;;1.10;0.93;;;-1.20;64.30;;;;;;5054348;28;20017;-68
2021/03/05 11:54:21;;;;;;;5.47;1.15;;;-1.20;64.50;;;;;;5054344;28;20128;-69
2021/03/05 11:56:46;;;;;;;9.05;1.08;;;-1.10;64.30;;;;;;5054901;28;20021;-68
2021/03/05 11:59:12;;;;;;;4.95;0.98;;;-1.10;64.20;;;;;;5054420;28;20499;-69
2021/03/05 12:01:39;;;;;;;7.78;1.35;;;-1.00;64.60;;;;;;5054561;28;20025;-68
2021/03/05 12:04:05;;;;;;;5.45;1.10;;;-1.00;65.00;;;;;;5054643;28;20033;-68
2021/03/05 12:06:31;;;;;;;3.20;0.90;;;-0.90;64.80;;;;;;5054373;28;20032;-68
2021/03/05 12:08:56;;;;;;;6.18;1.20;;;-1.00;64.00;;;;;;5054482;28;20066;-67
2021/03/05 12:11:23;;;;;;;8.05;1.02;;;-0.90;64.20;;;;;;5050492;28;20104;-67
2021/03/05 12:13:48;;;;;;;3.42;0.82;;;-1.00;64.30;;;;;;5053772;28;20025;-68
2021/03/05 12:16:14;;;;;;;7.45;1.00;;;-0.90;64.20;;;;;;5051905;28;20484;-67
2021/03/05 12:18:40;;;;;;;11.70;2.33;;;-0.90;64.30;;;;;;5052648;28;20017;-67
2021/03/05 12:21:06;;;;;;;6.35;1.30;;;-0.90;64.20;;;;;;5053497;28;20017;-67
2021/03/05 12:23:32;;;;;;;3.40;1.00;;;-0.80;63.90;;;;;;5053493;28;20033;-67
2021/03/05 12:25:58;;;;;;;1.15;0.80;;;-0.80;64.00;;;;;;5052915;28;20021;-67
2021/03/05 12:28:24;;;;;;;6.60;1.08;;;-0.80;63.80;;;;;;5052624;28;20045;-67
2021/03/05 12:30:50;;;;;;;0.88;0.75;;;-0.80;63.20;;;;;;5053103;28;20064;-67
2021/03/05 12:33:15;;;;;;;1.63;0.80;;;-0.70;63.30;;;;;;5052757;28;20032;-67
2021/03/05 12:35:41;;;;;;;2.35;1.00;;;-0.80;63.20;;;;;;5053118;28;20025;-67
2021/03/05 12:38:07;;;;;;;2.45;0.90;;;-0.80;63.00;;;;;;5052366;28;20571;-68
2021/03/05 12:40:32;;;;;;;7.15;1.00;;;-0.80;62.90;;;;;;5053796;28;20112;-68
2021/03/05 12:42:58;;;;;;;1.42;1.00;;;-0.70;63.10;;;;;;5053851;28;20438;-68
2021/03/05 12:45:24;;;;;;;6.47;0.80;;;-0.70;62.50;;;;;;5053065;28;20028;-69
2021/03/05 12:47:50;;;;;;;2.08;0.85;;;-0.70;62.60;;;;;;5053524;28;20029;-68
2021/03/05 12:50:16;;;;;;;6.20;0.98;;;-0.70;62.60;;;;;;5053069;28;20033;-72
2021/03/05 12:52:42;;;;;;;0.95;0.70;;;-0.70;62.40;;;;;;5053181;28;20029;-72
2021/03/05 12:55:08;;;;;;;2.17;0.95;;;-0.50;67.70;;;;;;5053044;28;20032;-71
2021/03/05 12:57:34;;;;;;;6.28;1.08;;;1.10;92.80;;;;;;5053119;28;20017;-72
2021/03/05 13:00:00;;;;;;;3.55;0.88;;;1.00;67.40;;;;;;5053159;28;20027;-71
2021/03/05 13:02:26;;;;;;;3.03;1.00;;;0.70;63.90;;;;;;5052941;28;20052;-69
2021/03/05 13:04:52;;;;;;;4.15;1.00;;;0.40;62.00;;;;;;5052545;28;20037;-69
2021/03/05 13:07:18;;;;;;;3.72;1.00;;;0.20;61.50;;;;;;5052290;28;20025;-69
2021/03/05 13:09:44;;;;;;;5.10;0.88;;;0.10;61.10;;;;;;5052522;28;20467;-69
2021/03/05 13:12:10;;;;;;;2.95;0.77;;;-0.10;61.00;;;;;;5052716;28;20035;-69
2021/03/05 13:14:36;;;;;;;7.05;1.10;;;-0.10;61.20;;;;;;5052615;28;20048;-69
2021/03/05 13:17:02;;;;;;;13.73;1.10;;;-0.10;61.60;;;;;;5052506;28;20021;-69
2021/03/05 13:19:28;;;;;;;4.20;0.95;;;-0.10;62.00;;;;;;5052516;28;20108;-69
2021/03/05 13:21:54;;;;;;;7.75;1.13;;;-0.10;61.20;;;;;;5052903;28;20117;-69
2021/03/05 13:24:20;;;;;;;6.25;0.90;;;-0.10;60.20;;;;;;5052346;28;20099;-68
2021/03/05 13:26:48;;;;;;;7.78;0.82;;;-0.10;59.90;;;;;;5052377;28;20540;-65
2021/03/05 13:29:14;;;;;;;1.77;0.90;;;1.60;91.90;;;;;;5052515;28;20032;-65
2021/03/05 13:31:40;;;;;;;3.13;0.80;;;1.60;61.50;;;;;;5052547;28;20555;-69
2021/03/05 13:34:06;;;;;;;4.20;0.85;;;1.00;58.60;;;;;;5052265;28;20109;-72
2021/03/05 13:36:31;;;;;;;4.35;0.93;;;0.50;58.00;;;;;;5054209;28;20039;-71
2021/03/05 13:38:57;;;;;;;4.75;1.10;;;0.30;57.70;;;;;;5051476;28;20055;-73
2021/03/05 13:41:23;;;;;;;5.70;1.02;;;0.20;58.50;;;;;;5050413;28;20036;-72
2021/03/05 13:43:49;;;;;;;10.93;0.98;;;0.10;58.80;;;;;;5051915;28;20021;-71
2021/03/05 13:46:14;;;;;;;10.57;0.88;;;0.10;59.10;;;;;;5051892;28;20025;-70
2021/03/05 13:48:42;;;;;;;1.17;0.85;;;0.10;59.40;;;;;;5051861;28;20025;-69
2021/03/05 13:51:08;;;;;;;3.50;0.82;;;0.00;59.00;;;;;;5051930;28;20429;-68
2021/03/05 13:53:35;;;;;;;6.65;0.90;;;0.00;59.00;;;;;;5052174;28;20025;-69
2021/03/05 13:56:03;;;;;;;12.07;1.20;;;0.00;59.20;;;;;;5051821;28;20027;-68
2021/03/05 13:58:30;;;;;;;11.02;1.40;;;0.90;74.70;;;;;;5051596;28;20036;-68
2021/03/05 14:00:56;;;;;;;3.70;0.85;;;0.80;60.70;;;;;;5051604;28;20025;-70
2021/03/05 14:03:22;;;;;;;2.00;0.80;;;0.50;59.30;;;;;;5051866;28;20082;-70
2021/03/05 14:05:47;;;;;;;3.70;0.90;;;0.30;59.30;;;;;;5052168;28;20029;-68
2021/03/05 14:08:13;;;;;;;5.15;1.00;;;0.10;58.90;;;;;;5051398;28;20021;-72
2021/03/05 14:10:39;;;;;;;1.80;0.73;;;0.00;59.40;;;;;;5052276;28;20063;-66
2021/03/05 14:13:04;;;;;;;2.05;0.90;;;0.60;99.90;;;;;;5052187;28;20074;-68
2021/03/05 14:15:30;;;;;;;1.88;0.70;;;3.20;72.60;;;;;;5049002;28;20049;-70
2021/03/05 14:17:56;;;;;;;8.27;0.80;;;2.90;81.30;;;;;;5051611;28;20032;-69
2021/03/05 14:20:22;;;;;;;4.15;1.10;;;4.00;67.80;;;;;;5051288;28;20127;-69
2021/03/05 14:22:47;;;;;;;3.72;0.88;;;2.80;58.70;;;;;;5051628;28;20039;-69
2021/03/05 14:25:13;;;;;;;6.70;0.80;;;1.80;58.40;;;;;;5051148;28;20081;-68
2021/03/05 14:27:39;;;;;;;2.88;0.80;;;1.10;58.90;;;;;;5051493;28;20052;-68
2021/03/05 14:30:06;;;;;;;0.80;0.70;;;0.70;59.40;;;;;;5051645;28;20036;-69
2021/03/05 14:32:32;;;;;;;4.80;0.90;;;0.50;59.80;;;;;;5051126;28;20025;-68
2021/03/05 14:34:58;;;;;;;5.38;1.00;;;0.30;60.30;;;;;;5045982;28;20028;-68
2021/03/05 14:37:24;;;;;;;1.38;0.73;;;0.20;60.60;;;;;;5050156;28;20021;-69
2021/03/05 14:39:52;;;;;;;7.13;0.90;;;0.20;60.90;;;;;;5049804;28;20033;-69
2021/03/05 14:42:18;;;;;;;4.00;1.00;;;0.00;60.80;;;;;;5051279;28;20029;-68
2021/03/05 14:44:44;;;;;;;1.90;0.82;;;-0.10;61.30;;;;;;5051492;28;20107;-69
2021/03/05 14:47:09;;;;;;;7.60;1.00;;;-0.10;61.20;;;;;;5049367;28;20048;-69
2021/03/05 14:49:36;;;;;;;0.90;0.80;;;-0.30;61.20;;;;;;5052002;28;20033;-69
2021/03/05 14:52:02;;;;;;;6.72;1.30;;;-0.30;61.50;;;;;;5054186;28;20103;-69
2021/03/05 14:54:27;;;;;;;3.72;0.95;;;-0.40;62.00;;;;;;5054321;28;20139;-69
2021/03/05 14:56:53;;;;;;;4.30;1.00;;;-0.40;62.30;;;;;;5055589;28;20427;-68
2021/03/05 14:59:19;;;;;;;6.70;0.98;;;-0.40;62.50;;;;;;5054594;28;20057;-69
2021/03/05 15:01:44;;;;;;;10.10;0.80;;;-0.50;62.40;;;;;;5055306;28;20103;-70
2021/03/05 15:04:10;;;;;;;4.85;1.30;;;-0.50;62.70;;;;;;5055683;28;20104;-67
2021/03/05 15:06:36;;;;;;;1.50;0.88;;;-0.50;63.20;;;;;;5055224;28;20476;-68
2021/03/05 15:09:02;;;;;;;7.85;1.20;;;-0.50;62.80;;;;;;5054984;28;20025;-68
2021/03/05 15:11:28;;;;;;;8.40;1.05;;;-0.60;62.80;;;;;;5054707;28;20033;-68
2021/03/05 15:13:54;;;;;;;3.33;1.38;;;-0.60;63.50;;;;;;5054980;28;20113;-69
2021/03/05 15:16:20;;;;;;;10.18;1.80;;;-0.30;71.20;;;;;;5054930;28;20056;-70
2021/03/05 15:18:45;;;;;;;3.03;1.17;;;-0.20;65.40;;;;;;5054850;28;20593;-70
2021/03/05 15:21:11;;;;;;;11.55;1.30;;;-0.30;64.00;;;;;;5055407;28;20152;-69
2021/03/05 15:23:37;;;;;;;8.75;1.45;;;-0.30;64.40;;;;;;5053681;28;20528;-69
2021/03/05 15:26:02;;;;;;;11.48;1.98;;;-0.30;63.60;;;;;;5055387;28;20032;-70
2021/03/05 15:28:28;;;;;;;5.55;1.42;;;-0.40;63.50;;;;;;5055340;28;20049;-69
2021/03/05 15:30:54;;;;;;;13.05;1.85;;;-0.40;64.30;;;;;;5055157;28;20464;-70
2021/03/05 15:33:20;;;;;;;11.18;1.00;;;-0.40;64.20;;;;;;5055090;28;20074;-70
2021/03/05 15:35:45;;;;;;;7.10;1.10;;;-0.50;63.90;;;;;;5055147;28;20036;-69
2021/03/05 15:38:11;;;;;;;8.30;0.98;;;-0.50;63.70;;;;;;5055304;28;20029;-67
2021/03/05 15:40:37;;;;;;;6.55;0.85;;;-0.60;63.70;;;;;;5055034;28;20163;-67
2021/03/05 15:43:03;;;;;;;4.88;1.42;;;-0.60;63.80;;;;;;5055375;28;20024;-67
2021/03/05 15:45:28;;;;;;;4.38;1.10;;;-0.70;64.00;;;;;;5055056;28;20029;-68
2021/03/05 15:47:54;;;;;;;7.55;0.90;;;-0.70;65.10;;;;;;5050292;28;20033;-68
2021/03/05 15:50:20;;;;;;;4.40;1.05;;;-0.70;64.70;;;;;;5053549;28;20084;-68
2021/03/05 15:52:46;;;;;;;8.80;1.35;;;-0.70;64.50;;;;;;5054328;28;20049;-68
2021/03/05 15:55:13;;;;;;;7.82;1.55;;;-0.80;65.00;;;;;;5054631;28;20478;-68
2021/03/05 15:57:39;;;;;;;10.25;1.50;;;-0.70;65.10;;;;;;5047769;28;20025;-68
2021/03/05 16:00:07;;;;;;;6.78;1.38;;;-0.70;65.60;;;;;;5049829;28;20036;-68
2021/03/05 16:02:33;;;;;;;13.60;1.30;;;-0.60;66.00;;;;;;5052058;28;20029;-67
2021/03/05 16:04:59;;;;;;;14.98;1.75;;;-0.20;80.50;;;;;;5053027;28;20025;-68
2021/03/05 16:07:25;;;;;;;6.75;1.30;;;0.00;76.20;;;;;;5054055;28;20092;-68
2021/03/05 16:09:50;;;;;;;5.53;1.08;;;0.00;72.50;;;;;;5053394;28;20033;-68
2021/03/05 16:12:16;;;;;;;17.50;2.22;;;-0.10;70.70;;;;;;5053555;28;20036;-68
2021/03/05 16:14:42;;;;;;;10.45;1.40;;;-0.10;69.70;;;;;;5053361;28;20077;-68
2021/03/05 16:17:08;;;;;;;12.73;1.83;;;-0.20;69.20;;;;;;5052712;28;20047;-68
2021/03/05 16:19:34;;;;;;;11.02;1.35;;;-0.20;68.80;;;;;;5052134;28;20287;-68
2021/03/05 16:22:00;;;;;;;18.48;2.58;;;-0.20;69.30;;;;;;5052669;28;20590;-68
2021/03/05 16:24:26;;;;;;;19.05;2.28;;;-0.30;67.80;;;;;;5052545;28;20033;-66
2021/03/05 16:26:52;;;;;;;16.15;2.88;;;-0.40;67.40;;;;;;5052234;28;20060;-66
2021/03/05 16:29:17;;;;;;;17.45;2.92;;;-0.50;66.90;;;;;;5052737;28;20031;-66
2021/03/05 16:31:46;;;;;;;21.88;2.90;;;-0.50;67.00;;;;;;5053007;28;20111;-66
2021/03/05 16:34:13;;;;;;;13.45;2.95;;;-0.60;67.20;;;;;;5052818;28;20033;-66
2021/03/05 16:36:40;;;;;;;18.73;2.08;;;-0.50;67.60;;;;;;5052748;28;20022;-67
2021/03/05 16:39:07;;;;;;;18.33;2.05;;;-0.60;67.40;;;;;;5052720;28;20536;-66
2021/03/05 16:41:38;;;;;;;21.90;2.35;;;-0.50;67.80;;;;;;5052752;28;20630;-66
2021/03/05 16:44:04;;;;;;;22.33;2.50;;;-0.60;67.40;;;;;;5053115;28;20431;-67
2021/03/05 16:46:31;;;;;;;10.57;2.42;;;-0.60;66.60;;;;;;5052516;28;20104;-66
2021/03/05 16:48:57;;;;;;;21.45;2.75;;;-0.70;67.00;;;;;;5052854;28;20021;-66
2021/03/05 16:51:23;;;;;;;9.10;2.75;;;-0.70;67.20;;;;;;5052468;28;20101;-67
2021/03/05 16:53:48;;;;;;;21.85;4.18;;;-0.70;67.10;;;;;;5052666;28;20021;-67
2021/03/05 16:56:14;;;;;;;16.73;4.07;;;-0.80;66.60;;;;;;5052993;28;20025;-66
2021/03/05 16:58:40;;;;;;;12.20;4.32;;;-0.80;67.10;;;;;;5051981;28;20017;-68
2021/03/05 17:01:06;;;;;;;16.55;4.03;;;-0.80;66.80;;;;;;5050574;28;20366;-66
2021/03/05 17:03:31;;;;;;;11.77;2.70;;;-0.90;67.00;;;;;;5052494;28;20461;-66